Prices Fork, Virginia
Current Conditions -  °F | °C
As of 6:15 AM on Thursday 18 Dec 2014 (Local Time) from KBCB Reporting Station
Clear Clear  
Wind Chill: 28°   Ceiling: Unl
Heat Index: 28°   Visibility: 10mi
Dew Point: 21°   Wind: 3mph
Humidity: 74%   Direction: 280°W
Pressure: 30.14"   Gusts: NA
Location:  37.1278°N, 80.4251°W
Report Text: KBCB 181115Z AUTO 28003KT 10SM CLR M02/M06 A3014 RMK AO2 T10221062
Loading
Personal Weather Stations






























Interactive Weather Map New forecast layout! Learn more

10-Day Weather Forecast

Advertisements
Track Severe Weather on mobile